createdAt,value
2022-10-14T00:00:58.169Z,12.47
2022-10-14T00:01:58.225Z,12.42
2022-10-14T00:02:58.146Z,12.41
2022-10-14T00:03:58.156Z,12.38
2022-10-14T00:04:58.246Z,12.38
2022-10-14T00:05:58.118Z,12.38
2022-10-14T00:06:58.122Z,12.32
2022-10-14T00:07:58.101Z,12.32
2022-10-14T00:08:58.097Z,12.28
2022-10-14T00:09:58.078Z,12.24
2022-10-14T00:10:58.072Z,12.24
2022-10-14T00:11:58.150Z,12.21
2022-10-14T00:12:58.040Z,12.23
2022-10-14T00:13:58.040Z,12.19
2022-10-14T00:14:58.024Z,12.20
2022-10-14T00:15:58.022Z,12.20
2022-10-14T00:16:58.016Z,12.17
2022-10-14T00:17:58.111Z,12.14
2022-10-14T00:18:57.981Z,12.14
2022-10-14T00:19:57.972Z,12.14
2022-10-14T00:20:57.970Z,12.13
2022-10-14T00:21:57.954Z,12.12
2022-10-14T00:22:57.947Z,12.12
2022-10-14T00:23:57.945Z,12.13
2022-10-14T00:24:57.926Z,12.10
2022-10-14T00:25:57.915Z,12.09
2022-10-14T00:26:57.944Z,12.07
2022-10-14T00:27:57.895Z,12.07
2022-10-14T00:28:57.927Z,12.05
2022-10-14T00:29:57.886Z,12.07
2022-10-14T00:30:57.846Z,12.05
2022-10-14T00:31:57.846Z,12.04
2022-10-14T00:32:57.836Z,12.04
2022-10-14T00:33:57.830Z,12.01
2022-10-14T00:34:57.826Z,12.01
2022-10-14T00:35:57.814Z,12.01
2022-10-14T00:36:57.789Z,12.01
2022-10-14T00:37:57.784Z,12.02
2022-10-14T00:38:57.778Z,12.01
2022-10-14T00:39:57.759Z,12.01
2022-10-14T00:40:57.748Z,11.99
2022-10-14T00:41:57.739Z,11.99
2022-10-14T00:42:57.730Z,11.98
2022-10-14T00:43:57.728Z,11.99
2022-10-14T00:44:57.699Z,12.01
2022-10-14T00:45:57.699Z,11.99
2022-10-14T00:46:57.710Z,11.98
2022-10-14T00:47:57.675Z,11.96
2022-10-14T00:48:57.675Z,11.96
2022-10-14T00:49:57.662Z,11.95
2022-10-14T00:50:57.641Z,11.95
2022-10-14T00:51:57.631Z,11.94
2022-10-14T00:52:57.621Z,11.91
2022-10-14T00:53:57.612Z,11.91
2022-10-14T00:54:57.606Z,11.91
2022-10-14T00:55:57.593Z,11.91
2022-10-14T00:56:57.575Z,11.88
2022-10-14T00:57:57.570Z,11.86
2022-10-14T00:58:57.552Z,11.85
2022-10-14T00:59:57.561Z,11.83
2022-10-14T01:00:57.555Z,11.83
2022-10-14T01:01:57.553Z,11.83
2022-10-14T01:02:57.515Z,11.86
2022-10-14T01:03:57.520Z,11.83
2022-10-14T01:04:57.495Z,11.83
2022-10-14T01:05:57.497Z,11.82
2022-10-14T01:06:57.468Z,11.82
2022-10-14T01:07:57.468Z,11.82
2022-10-14T01:08:57.457Z,11.85
2022-10-14T01:09:57.459Z,11.83
2022-10-14T01:10:57.434Z,11.83
2022-10-14T01:12:23.404Z,11.90
2022-10-14T01:12:58.411Z,11.86
2022-10-14T01:13:57.410Z,11.88
2022-10-14T01:14:57.381Z,11.88
2022-10-14T01:15:57.380Z,11.88
2022-10-14T01:16:57.359Z,11.86
2022-10-14T01:17:57.360Z,11.86
2022-10-14T01:18:57.340Z,11.88
2022-10-14T01:19:57.340Z,11.85
2022-10-14T01:20:57.331Z,11.88
2022-10-14T01:21:57.317Z,11.86
2022-10-14T01:22:57.305Z,11.86
2022-10-14T01:23:57.301Z,11.86
2022-10-14T01:24:57.292Z,11.90
2022-10-14T01:25:57.276Z,11.88
2022-10-14T01:26:57.261Z,11.88
2022-10-14T01:27:57.259Z,11.88
2022-10-14T01:28:57.290Z,11.85
2022-10-14T01:29:57.242Z,11.86
2022-10-14T01:30:57.213Z,11.86
2022-10-14T01:31:57.213Z,11.86
2022-10-14T01:32:57.206Z,11.86
2022-10-14T01:33:57.199Z,11.88
2022-10-14T01:34:57.172Z,11.90
2022-10-14T01:35:57.176Z,11.91
2022-10-14T01:36:57.157Z,11.90
2022-10-14T01:37:57.147Z,11.91
2022-10-14T01:38:57.136Z,11.91
2022-10-14T01:39:57.127Z,11.91
2022-10-14T01:40:57.112Z,11.94
2022-10-14T01:41:57.120Z,11.94
2022-10-14T01:42:57.087Z,11.94
2022-10-14T01:43:57.086Z,11.94
2022-10-14T01:44:57.071Z,11.88
2022-10-14T01:45:57.065Z,11.94
2022-10-14T01:46:57.048Z,11.94
2022-10-14T01:47:57.059Z,11.94
2022-10-14T01:48:57.035Z,11.91
2022-10-14T01:49:57.024Z,11.94
2022-10-14T01:50:57.019Z,11.94
2022-10-14T01:51:56.999Z,11.95
2022-10-14T01:52:56.990Z,11.95
2022-10-14T01:53:56.982Z,11.96
2022-10-14T01:54:56.962Z,11.98
2022-10-14T01:55:56.963Z,11.99
2022-10-14T01:56:56.948Z,11.96
2022-10-14T01:57:56.946Z,11.98
2022-10-14T01:58:56.930Z,11.99
2022-10-14T01:59:56.927Z,11.99
2022-10-14T02:00:56.894Z,12.01
2022-10-14T02:01:56.929Z,11.99
2022-10-14T02:02:56.883Z,11.99
2022-10-14T02:03:56.875Z,11.99
2022-10-14T02:04:56.862Z,11.98
2022-10-14T02:05:56.923Z,11.98
2022-10-14T02:06:56.882Z,12.01
2022-10-14T02:07:56.840Z,12.01
2022-10-14T02:08:58.537Z,12.01
2022-10-14T02:09:56.824Z,11.99
2022-10-14T02:11:01.709Z,11.99
2022-10-14T02:11:57.795Z,12.01
2022-10-14T02:12:56.777Z,11.99
2022-10-14T02:13:56.779Z,11.99
2022-10-14T02:14:56.766Z,12.01
2022-10-14T02:15:56.755Z,12.02
2022-10-14T02:16:56.736Z,12.01
2022-10-14T02:17:56.742Z,11.99
2022-10-14T02:18:56.716Z,12.04
2022-10-14T02:19:56.708Z,12.01
2022-10-14T02:20:56.705Z,12.04
2022-10-14T02:21:56.687Z,12.01
2022-10-14T02:22:56.671Z,12.02
2022-10-14T02:23:56.670Z,12.01
2022-10-14T02:24:56.658Z,12.02
2022-10-14T02:25:56.649Z,12.02
2022-10-14T02:26:56.639Z,12.01
2022-10-14T02:27:56.629Z,12.04
2022-10-14T02:28:56.724Z,12.04
2022-10-14T02:29:56.600Z,12.02
2022-10-14T02:30:56.599Z,12.04
2022-10-14T02:31:56.583Z,12.04
2022-10-14T02:32:56.565Z,12.07
2022-10-14T02:33:56.560Z,12.04
2022-10-14T02:34:56.551Z,12.07
2022-10-14T02:35:56.543Z,12.05
2022-10-14T02:36:56.531Z,12.01
2022-10-14T02:37:56.523Z,12.01
2022-10-14T02:38:56.502Z,12.01
2022-10-14T02:39:56.516Z,12.02
2022-10-14T02:40:56.484Z,12.02
2022-10-14T02:41:56.476Z,11.99
2022-10-14T02:42:56.463Z,12.02
2022-10-14T02:43:56.461Z,12.04
2022-10-14T02:44:56.445Z,12.01
2022-10-14T02:45:56.450Z,12.01
2022-10-14T02:46:56.419Z,12.01
2022-10-14T02:47:56.417Z,12.02
2022-10-14T02:48:56.412Z,12.01
2022-10-14T02:49:56.391Z,12.02
2022-10-14T02:50:56.385Z,11.98
2022-10-14T02:51:56.376Z,12.02
2022-10-14T02:52:56.376Z,12.01
2022-10-14T02:53:56.347Z,12.01
2022-10-14T02:54:56.342Z,11.98
2022-10-14T02:55:56.329Z,11.99
2022-10-14T02:56:56.318Z,11.99
2022-10-14T02:57:56.305Z,12.01
2022-10-14T02:58:56.298Z,11.99
2022-10-14T02:59:56.296Z,12.01
2022-10-14T03:00:56.279Z,12.01
2022-10-14T03:01:56.302Z,11.98
2022-10-14T03:02:56.274Z,11.98
2022-10-14T03:03:56.260Z,11.98
2022-10-14T03:04:56.248Z,11.99
2022-10-14T03:05:56.211Z,11.99
2022-10-14T03:06:56.222Z,12.01
2022-10-14T03:07:56.201Z,11.99
2022-10-14T03:08:56.201Z,12.02
2022-10-14T03:09:56.181Z,12.02
2022-10-14T03:10:56.175Z,12.02
2022-10-14T03:11:56.152Z,12.04
2022-10-14T03:12:56.156Z,12.02
2022-10-14T03:13:56.133Z,12.01
2022-10-14T03:14:56.130Z,12.02
2022-10-14T03:15:56.114Z,12.02
2022-10-14T03:16:56.103Z,12.01
2022-10-14T03:17:56.092Z,12.02
2022-10-14T03:18:56.197Z,12.02
2022-10-14T03:19:56.074Z,12.02
2022-10-14T03:20:56.064Z,12.05
2022-10-14T03:21:56.057Z,12.02
2022-10-14T03:22:56.046Z,12.05
2022-10-14T03:23:56.037Z,12.04
2022-10-14T03:24:56.026Z,12.05
2022-10-14T03:25:56.015Z,12.02
2022-10-14T03:26:56.010Z,12.05
2022-10-14T03:27:55.994Z,12.04
2022-10-14T03:28:56.015Z,12.05
2022-10-14T03:29:55.968Z,12.07
2022-10-14T03:30:55.960Z,12.09
2022-10-14T03:31:55.958Z,12.07
2022-10-14T03:32:55.951Z,12.07
2022-10-14T03:33:55.929Z,12.05
2022-10-14T03:34:55.945Z,12.09
2022-10-14T03:35:55.911Z,12.10
2022-10-14T03:36:55.914Z,12.10
2022-10-14T03:37:55.880Z,12.09
2022-10-14T03:38:55.990Z,12.10
2022-10-14T03:39:55.875Z,12.10
2022-10-14T03:40:55.861Z,12.10
2022-10-14T03:41:55.840Z,12.09
2022-10-14T03:42:55.844Z,12.12
2022-10-14T03:43:55.821Z,12.10
2022-10-14T03:44:55.830Z,12.09
2022-10-14T03:45:55.812Z,12.05
2022-10-14T03:46:55.790Z,12.07
2022-10-14T03:47:55.775Z,12.07
2022-10-14T03:48:55.785Z,12.09
2022-10-14T03:49:55.763Z,12.09
2022-10-14T03:50:55.840Z,12.09
2022-10-14T03:51:55.734Z,12.09
2022-10-14T03:52:55.984Z,12.09
2022-10-14T03:53:55.739Z,12.09
2022-10-14T03:54:55.715Z,12.07
2022-10-14T03:55:55.694Z,12.09
2022-10-14T03:56:55.702Z,12.09
2022-10-14T03:57:55.699Z,12.10
2022-10-14T03:58:55.667Z,12.10
2022-10-14T03:59:55.661Z,12.09
2022-10-14T04:00:55.658Z,12.07
2022-10-14T04:01:55.712Z,12.07
2022-10-14T04:02:55.617Z,12.09
2022-10-14T04:03:55.617Z,12.07
2022-10-14T04:05:00.629Z,12.09
2022-10-14T04:05:56.589Z,12.09
2022-10-14T04:06:55.579Z,12.10
2022-10-14T04:07:55.568Z,12.07
2022-10-14T04:08:55.576Z,12.07
2022-10-14T04:09:55.551Z,12.07
2022-10-14T04:10:55.540Z,12.05
2022-10-14T04:11:57.674Z,12.07
2022-10-14T04:12:55.528Z,12.09
2022-10-14T04:13:55.507Z,12.05
2022-10-14T04:14:55.500Z,12.05
2022-10-14T04:15:55.493Z,12.05
2022-10-14T04:16:55.482Z,12.04
2022-10-14T04:17:55.463Z,12.04
2022-10-14T04:18:55.464Z,12.05
2022-10-14T04:19:55.453Z,12.09
2022-10-14T04:20:55.434Z,12.05
2022-10-14T04:21:55.434Z,12.05
2022-10-14T04:22:55.425Z,12.07
2022-10-14T04:23:55.416Z,12.09
2022-10-14T04:24:55.393Z,12.04
2022-10-14T04:25:55.384Z,12.04
2022-10-14T04:26:55.404Z,12.02
2022-10-14T04:27:55.372Z,12.04
2022-10-14T04:28:55.377Z,12.05
2022-10-14T04:29:55.354Z,12.02
2022-10-14T04:30:55.337Z,12.05
2022-10-14T04:31:55.324Z,12.05
2022-10-14T04:32:55.313Z,12.05
2022-10-14T04:33:55.313Z,12.05
2022-10-14T04:34:55.286Z,12.07
2022-10-14T04:35:55.283Z,12.05
2022-10-14T04:36:55.280Z,12.07
2022-10-14T04:37:55.267Z,12.05
2022-10-14T04:38:55.249Z,12.02
2022-10-14T04:39:55.233Z,12.05
2022-10-14T04:40:55.229Z,12.05
2022-10-14T04:41:55.219Z,12.05
2022-10-14T04:42:55.209Z,12.04
2022-10-14T04:43:55.197Z,12.04
2022-10-14T04:44:55.191Z,11.99
2022-10-14T04:45:55.169Z,12.04
2022-10-14T04:46:55.181Z,12.05
2022-10-14T04:47:55.158Z,12.05
2022-10-14T04:48:55.152Z,12.04
2022-10-14T04:49:55.130Z,12.05
2022-10-14T04:50:55.132Z,12.04
2022-10-14T04:51:55.111Z,12.04
2022-10-14T04:52:55.110Z,12.05
2022-10-14T04:53:55.090Z,12.05
2022-10-14T04:54:55.082Z,12.07
2022-10-14T04:55:55.064Z,12.05
2022-10-14T04:56:55.066Z,12.05
2022-10-14T04:57:55.058Z,12.04
2022-10-14T04:58:55.042Z,12.05
2022-10-14T04:59:55.024Z,12.02
2022-10-14T05:00:55.042Z,12.02
2022-10-14T05:01:55.090Z,12.05
2022-10-14T05:02:55.052Z,12.04
2022-10-14T05:03:54.977Z,12.04
2022-10-14T05:04:55.025Z,12.04
2022-10-14T05:05:54.957Z,12.02
2022-10-14T05:06:54.981Z,12.02
2022-10-14T05:07:54.975Z,12.07
2022-10-14T05:08:54.939Z,12.04
2022-10-14T05:09:56.670Z,12.04
2022-10-14T05:10:54.935Z,12.05
2022-10-14T05:11:54.904Z,12.05
2022-10-14T05:12:54.894Z,12.02
2022-10-14T05:13:54.885Z,12.04
2022-10-14T05:14:54.878Z,12.07
2022-10-14T05:15:54.858Z,12.07
2022-10-14T05:16:54.872Z,12.07
2022-10-14T05:17:54.859Z,12.04
2022-10-14T05:18:54.832Z,12.04
2022-10-14T05:19:54.825Z,12.07
2022-10-14T05:20:54.829Z,12.04
2022-10-14T05:21:54.800Z,12.04
2022-10-14T05:22:54.791Z,12.04
2022-10-14T05:23:54.789Z,12.05
2022-10-14T05:24:54.769Z,12.07
2022-10-14T05:25:54.756Z,12.05
2022-10-14T05:26:54.750Z,12.07
2022-10-14T05:27:54.742Z,12.05
2022-10-14T05:28:54.833Z,12.05
2022-10-14T05:29:54.723Z,12.05
2022-10-14T05:30:54.703Z,12.07
2022-10-14T05:31:54.684Z,12.09
2022-10-14T05:32:54.685Z,12.05
2022-10-14T05:33:54.675Z,12.04
2022-10-14T05:34:54.671Z,12.07
2022-10-14T05:35:59.185Z,12.04
2022-10-14T05:36:55.645Z,12.02
2022-10-14T05:37:54.638Z,12.04
2022-10-14T05:38:54.636Z,12.05
2022-10-14T05:39:54.616Z,12.05
2022-10-14T05:40:54.608Z,12.05
2022-10-14T05:41:54.593Z,12.04
2022-10-14T05:42:54.591Z,12.04
2022-10-14T05:43:54.566Z,12.09
2022-10-14T05:44:54.577Z,12.09
2022-10-14T05:45:54.560Z,12.10
2022-10-14T05:46:54.547Z,12.10
2022-10-14T05:47:54.528Z,12.10
2022-10-14T05:48:54.518Z,12.14
2022-10-14T05:49:54.512Z,12.14
2022-10-14T05:50:54.510Z,12.14
2022-10-14T05:51:54.492Z,12.17
2022-10-14T05:52:54.482Z,12.17
2022-10-14T05:53:54.465Z,12.16
2022-10-14T05:54:54.689Z,12.19
2022-10-14T05:55:54.441Z,12.19
2022-10-14T05:56:54.455Z,12.19
2022-10-14T05:57:54.530Z,12.23
2022-10-14T05:58:54.418Z,12.20
2022-10-14T05:59:54.412Z,12.24
2022-10-14T06:00:54.461Z,12.24
2022-10-14T06:01:54.383Z,12.27
2022-10-14T06:02:54.443Z,12.28
2022-10-14T06:03:54.480Z,12.28
2022-10-14T06:04:54.360Z,12.29
2022-10-14T06:05:54.343Z,12.31
2022-10-14T06:06:54.333Z,12.32
2022-10-14T06:07:55.039Z,12.31
2022-10-14T06:08:54.316Z,12.29
2022-10-14T06:09:54.313Z,12.31
2022-10-14T06:10:54.295Z,12.32
2022-10-14T06:11:54.299Z,12.31
2022-10-14T06:12:54.286Z,12.34
2022-10-14T06:13:54.327Z,12.34
2022-10-14T06:14:54.267Z,12.34
2022-10-14T06:15:54.257Z,12.34
2022-10-14T06:16:54.231Z,12.35
2022-10-14T06:17:54.216Z,12.37
2022-10-14T06:18:54.656Z,12.34
2022-10-14T06:19:54.197Z,12.35
2022-10-14T06:20:54.198Z,12.37
2022-10-14T06:21:54.178Z,12.35
2022-10-14T06:22:54.169Z,12.38
2022-10-14T06:23:54.161Z,12.38
2022-10-14T06:24:54.140Z,12.38
2022-10-14T06:25:54.141Z,12.39
2022-10-14T06:26:54.123Z,12.39
2022-10-14T06:27:54.110Z,12.38
2022-10-14T06:28:54.219Z,12.38
2022-10-14T06:29:54.089Z,12.41
2022-10-14T06:30:54.099Z,12.41
2022-10-14T06:31:54.075Z,12.45
2022-10-14T06:32:54.089Z,12.45
2022-10-14T06:33:54.050Z,12.45
2022-10-14T06:34:54.042Z,12.47
2022-10-14T06:35:54.027Z,12.47
2022-10-14T06:36:57.393Z,12.47
2022-10-14T06:37:55.003Z,12.50
2022-10-14T06:38:54.014Z,12.50
2022-10-14T06:39:53.986Z,12.47
2022-10-14T06:40:53.973Z,12.52
2022-10-14T06:41:53.966Z,12.52
2022-10-14T06:42:53.969Z,12.53
2022-10-14T06:43:53.939Z,12.54
2022-10-14T06:44:53.936Z,12.54
2022-10-14T06:45:53.922Z,12.57
2022-10-14T06:46:53.934Z,12.59
2022-10-14T06:47:53.901Z,12.60
2022-10-14T06:48:53.896Z,12.65
2022-10-14T06:49:53.878Z,12.67
2022-10-14T06:50:53.896Z,12.65
2022-10-14T06:51:53.858Z,12.65
2022-10-14T06:52:53.857Z,12.68
2022-10-14T06:53:53.838Z,12.70
2022-10-14T06:54:53.938Z,12.74
2022-10-14T06:55:53.820Z,12.74
2022-10-14T06:56:53.819Z,12.74
2022-10-14T06:57:53.860Z,12.74
2022-10-14T06:58:53.795Z,12.77
2022-10-14T06:59:53.771Z,12.77
2022-10-14T07:00:53.844Z,12.77
2022-10-14T07:01:53.861Z,12.79
2022-10-14T07:02:53.741Z,12.83
2022-10-14T07:03:56.582Z,12.87
2022-10-14T07:04:53.730Z,12.90
2022-10-14T07:05:53.713Z,12.95
2022-10-14T07:06:53.711Z,12.96
2022-10-14T07:07:53.750Z,13.01
2022-10-14T07:08:53.685Z,13.04
2022-10-14T07:09:53.673Z,13.07
2022-10-14T07:10:53.663Z,13.08
2022-10-14T07:11:53.664Z,13.08
2022-10-14T07:12:53.644Z,13.10
2022-10-14T07:13:53.634Z,13.11
2022-10-14T07:14:53.625Z,13.15
2022-10-14T07:15:53.612Z,13.14
2022-10-14T07:16:53.605Z,13.14
2022-10-14T07:17:53.594Z,13.12
2022-10-14T07:18:53.575Z,13.14
2022-10-14T07:19:53.570Z,13.19
2022-10-14T07:20:53.566Z,13.19
2022-10-14T07:21:53.555Z,13.23
2022-10-14T07:22:53.537Z,13.23
2022-10-14T07:23:53.534Z,13.23
2022-10-14T07:24:53.521Z,13.26
2022-10-14T07:25:53.506Z,13.26
2022-10-14T07:26:53.614Z,13.25
2022-10-14T07:27:53.496Z,13.26
2022-10-14T07:28:53.601Z,13.23
2022-10-14T07:29:53.468Z,13.22
2022-10-14T07:30:53.449Z,13.23
2022-10-14T07:31:53.439Z,13.28
2022-10-14T07:32:53.440Z,13.28
2022-10-14T07:33:53.429Z,13.29
2022-10-14T07:34:53.410Z,13.29
2022-10-14T07:35:53.409Z,13.29
2022-10-14T07:36:53.381Z,13.32
2022-10-14T07:37:53.382Z,13.36
2022-10-14T07:38:53.382Z,13.33
2022-10-14T07:39:53.360Z,13.36
2022-10-14T07:40:53.347Z,13.39
2022-10-14T07:41:53.336Z,13.41
2022-10-14T07:42:53.333Z,13.46
2022-10-14T07:43:53.313Z,13.52
2022-10-14T07:44:53.293Z,13.51
2022-10-14T07:45:53.304Z,13.51
2022-10-14T07:46:53.281Z,13.54
2022-10-14T07:47:53.276Z,13.57
2022-10-14T07:48:57.294Z,13.62
2022-10-14T07:49:53.265Z,13.67
2022-10-14T07:50:53.240Z,13.69
2022-10-14T07:51:53.233Z,13.70
2022-10-14T07:52:54.916Z,13.69
2022-10-14T07:53:53.368Z,13.70
2022-10-14T07:54:53.217Z,13.66
2022-10-14T07:55:53.187Z,13.62
2022-10-14T07:56:53.175Z,13.63
2022-10-14T07:57:53.170Z,13.60
2022-10-14T07:58:53.158Z,13.62
2022-10-14T07:59:53.146Z,13.60
2022-10-14T08:00:53.135Z,13.60
2022-10-14T08:01:53.258Z,13.62
2022-10-14T08:02:53.108Z,13.66
2022-10-14T08:03:53.107Z,13.67
2022-10-14T08:04:53.117Z,13.69
2022-10-14T08:05:53.080Z,13.73
2022-10-14T08:06:53.071Z,13.73
2022-10-14T08:07:53.071Z,13.77
2022-10-14T08:08:53.052Z,13.78
2022-10-14T08:09:53.048Z,13.79
2022-10-14T08:10:53.034Z,13.81
2022-10-14T08:11:53.023Z,13.85
2022-10-14T08:12:53.003Z,13.89
2022-10-14T08:13:53.012Z,13.91
2022-10-14T08:14:52.981Z,13.91
2022-10-14T08:15:52.991Z,13.92
2022-10-14T08:16:52.964Z,13.92
2022-10-14T08:17:52.961Z,13.95
2022-10-14T08:18:52.946Z,13.97
2022-10-14T08:19:52.946Z,13.96
2022-10-14T08:20:52.926Z,13.92
2022-10-14T08:21:52.925Z,13.89
2022-10-14T08:22:52.908Z,13.89
2022-10-14T08:23:52.900Z,13.89
2022-10-14T08:24:52.876Z,13.91
2022-10-14T08:25:52.876Z,13.92
2022-10-14T08:26:52.856Z,13.95
2022-10-14T08:27:52.856Z,13.95
2022-10-14T08:28:52.897Z,13.92
2022-10-14T08:29:52.837Z,13.91
2022-10-14T08:30:52.821Z,13.85
2022-10-14T08:31:52.817Z,13.84
2022-10-14T08:32:52.790Z,13.87
2022-10-14T08:33:52.787Z,13.89
2022-10-14T08:34:52.780Z,13.91
2022-10-14T08:35:54.147Z,13.95
2022-10-14T08:36:52.749Z,13.99
2022-10-14T08:37:52.748Z,14.00
2022-10-14T08:38:52.730Z,14.00
2022-10-14T08:39:52.729Z,14.00
2022-10-14T08:40:55.622Z,14.00
2022-10-14T08:41:52.701Z,13.99
2022-10-14T08:42:52.696Z,14.02
2022-10-14T08:43:52.701Z,14.09
2022-10-14T08:44:52.670Z,14.10
2022-10-14T08:45:52.661Z,14.15
2022-10-14T08:46:52.711Z,14.17
2022-10-14T08:47:52.647Z,14.18
2022-10-14T08:48:52.622Z,14.17
2022-10-14T08:49:52.619Z,14.21
2022-10-14T08:50:52.604Z,14.18
2022-10-14T08:51:52.616Z,14.17
2022-10-14T08:52:52.585Z,14.18
2022-10-14T08:53:52.593Z,14.17
2022-10-14T08:54:52.577Z,14.18
2022-10-14T08:55:52.556Z,14.12
2022-10-14T08:56:52.549Z,14.12
2022-10-14T08:57:52.533Z,14.07
2022-10-14T08:58:52.516Z,14.09
2022-10-14T08:59:52.518Z,14.10
2022-10-14T09:00:52.494Z,14.10
2022-10-14T09:01:52.499Z,14.09
2022-10-14T09:02:52.536Z,14.03
2022-10-14T09:03:52.585Z,13.95
2022-10-14T09:04:52.456Z,13.95
2022-10-14T09:05:52.467Z,13.95
2022-10-14T09:06:52.439Z,13.96
2022-10-14T09:07:52.431Z,13.91
2022-10-14T09:08:52.410Z,13.91
2022-10-14T09:09:52.409Z,13.92
2022-10-14T09:10:52.391Z,13.95
2022-10-14T09:11:52.394Z,13.97
2022-10-14T09:12:52.362Z,14.00
2022-10-14T09:13:52.361Z,14.02
2022-10-14T09:14:52.350Z,14.02
2022-10-14T09:15:52.349Z,14.03
2022-10-14T09:16:54.176Z,14.02
2022-10-14T09:17:52.336Z,14.04
2022-10-14T09:18:54.680Z,14.03
2022-10-14T09:19:52.303Z,14.06
2022-10-14T09:20:52.295Z,14.04
2022-10-14T09:21:53.562Z,14.06
2022-10-14T09:23:52.274Z,14.06
2022-10-14T09:24:52.236Z,14.07
2022-10-14T09:25:52.236Z,14.09
2022-10-14T09:26:52.272Z,14.10
2022-10-14T09:27:52.216Z,14.12
2022-10-14T09:28:52.277Z,14.15
2022-10-14T09:29:52.195Z,14.18
2022-10-14T09:30:52.192Z,14.22
2022-10-14T09:31:52.179Z,14.24
2022-10-14T09:32:52.173Z,14.33
2022-10-14T09:33:52.157Z,14.33
2022-10-14T09:34:52.140Z,14.40
2022-10-14T09:35:52.182Z,14.45
2022-10-14T09:37:52.109Z,14.60
2022-10-14T09:38:52.091Z,14.68
2022-10-14T09:39:52.100Z,14.70
2022-10-14T09:40:52.074Z,14.72
2022-10-14T09:41:52.060Z,14.78
2022-10-14T09:42:52.051Z,14.80
2022-10-14T09:43:52.052Z,14.83
2022-10-14T09:44:52.030Z,14.89
2022-10-14T09:45:52.040Z,14.88
2022-10-14T09:46:52.009Z,14.91
2022-10-14T09:47:52.011Z,14.96
2022-10-14T09:48:51.986Z,15.03
2022-10-14T09:49:51.996Z,15.16
2022-10-14T09:50:52.065Z,15.25
2022-10-14T09:51:51.962Z,15.29
2022-10-14T09:52:51.944Z,15.36
2022-10-14T09:53:51.945Z,15.44
2022-10-14T09:54:51.934Z,15.49
2022-10-14T09:55:51.925Z,15.54
2022-10-14T09:56:51.904Z,15.68
2022-10-14T09:57:51.895Z,15.80
2022-10-14T09:58:51.876Z,15.90
2022-10-14T09:59:51.875Z,16.05
2022-10-14T10:00:51.857Z,16.08
2022-10-14T10:01:51.956Z,16.12
2022-10-14T10:02:51.841Z,16.21
2022-10-14T10:03:51.974Z,16.23
2022-10-14T10:04:51.818Z,16.25
2022-10-14T10:05:51.808Z,16.27
2022-10-14T10:06:51.803Z,16.35
2022-10-14T10:07:51.801Z,16.48
2022-10-14T10:08:51.782Z,16.56
2022-10-14T10:09:51.770Z,16.50
2022-10-14T10:10:51.777Z,16.46
2022-10-14T10:11:51.748Z,16.49
2022-10-14T10:12:51.739Z,16.63
2022-10-14T10:13:51.733Z,16.70
2022-10-14T10:14:51.721Z,16.83
2022-10-14T10:15:51.713Z,16.91
2022-10-14T10:17:51.703Z,16.85
2022-10-14T10:18:51.670Z,16.79
2022-10-14T10:19:51.671Z,16.73
2022-10-14T10:20:51.651Z,16.63
2022-10-14T10:21:51.651Z,16.70
2022-10-14T10:22:51.623Z,16.75
2022-10-14T10:23:51.634Z,16.73
2022-10-14T10:24:51.614Z,16.79
2022-10-14T10:25:51.604Z,16.89
2022-10-14T10:26:51.585Z,16.96
2022-10-14T10:27:51.585Z,16.96
2022-10-14T10:28:51.635Z,16.94
2022-10-14T10:29:51.564Z,16.82
2022-10-14T10:30:51.539Z,16.82
2022-10-14T10:31:51.541Z,16.93
2022-10-14T10:32:51.529Z,17.01
2022-10-14T10:33:51.525Z,17.08
2022-10-14T10:34:51.498Z,17.21
2022-10-14T10:35:51.526Z,17.28
2022-10-14T10:36:51.487Z,17.19
2022-10-14T10:37:51.510Z,17.30
2022-10-14T10:38:51.479Z,17.33
2022-10-14T10:39:51.460Z,17.38
2022-10-14T10:40:51.441Z,17.54
2022-10-14T10:41:51.445Z,17.54
2022-10-14T10:42:51.421Z,17.63
2022-10-14T10:43:51.423Z,17.74
2022-10-14T10:44:51.425Z,17.79
2022-10-14T10:45:51.448Z,17.78
2022-10-14T10:46:51.399Z,17.77
2022-10-14T10:47:51.420Z,17.75
2022-10-14T10:48:51.381Z,17.70
2022-10-14T10:49:51.455Z,17.74
2022-10-14T10:50:51.360Z,17.75
2022-10-14T10:51:51.381Z,17.84
2022-10-14T10:52:51.339Z,17.86
2022-10-14T10:53:51.363Z,17.82
2022-10-14T10:54:51.311Z,17.84
2022-10-14T10:55:51.339Z,18.02
2022-10-14T10:56:51.295Z,18.11
2022-10-14T10:57:51.312Z,18.05
2022-10-14T10:58:51.274Z,18.00
2022-10-14T10:59:51.295Z,18.00
2022-10-14T11:00:51.256Z,17.96
2022-10-14T11:01:51.323Z,17.97
2022-10-14T11:02:51.232Z,18.02
2022-10-14T11:03:51.247Z,18.17
2022-10-14T11:04:51.207Z,18.26
2022-10-14T11:05:51.228Z,18.35
2022-10-14T11:06:51.193Z,18.52
2022-10-14T11:07:51.196Z,18.45
2022-10-14T11:08:51.168Z,18.52
2022-10-14T11:09:51.209Z,18.32
2022-10-14T11:10:51.153Z,18.27
2022-10-14T11:11:51.160Z,18.25
2022-10-14T11:12:51.128Z,18.15
2022-10-14T11:13:51.148Z,18.10
2022-10-14T11:14:51.101Z,18.08
2022-10-14T11:15:51.121Z,18.12
2022-10-14T11:16:51.080Z,18.15
2022-10-14T11:17:51.097Z,18.15
2022-10-14T11:18:51.081Z,18.17
2022-10-14T11:19:51.053Z,18.23
2022-10-14T11:20:51.066Z,18.35
2022-10-14T11:21:51.030Z,18.48
2022-10-14T11:22:51.042Z,18.57
2022-10-14T11:23:51.013Z,18.66
2022-10-14T11:24:51.042Z,18.60
2022-10-14T11:25:50.986Z,18.60
2022-10-14T11:26:50.995Z,18.67
2022-10-14T11:27:50.964Z,18.66
2022-10-14T11:28:50.981Z,18.58
2022-10-14T11:29:50.930Z,18.58
2022-10-14T11:30:50.923Z,18.52
2022-10-14T11:31:50.905Z,18.50
2022-10-14T11:32:50.904Z,18.50
2022-10-14T11:33:50.883Z,18.47
2022-10-14T11:34:50.876Z,18.36
2022-10-14T11:35:50.935Z,18.36
2022-10-14T11:36:50.856Z,18.39
2022-10-14T11:37:50.846Z,18.39
2022-10-14T11:38:50.822Z,18.44
2022-10-14T11:39:50.811Z,18.45
2022-10-14T11:40:50.794Z,18.45
2022-10-14T11:41:50.791Z,18.37
2022-10-14T11:42:50.773Z,18.33
2022-10-14T11:43:50.763Z,18.35
2022-10-14T11:44:50.764Z,18.29
2022-10-14T11:45:50.760Z,18.27
2022-10-14T11:46:50.735Z,18.30
2022-10-14T11:47:50.719Z,18.32
2022-10-14T11:48:50.716Z,18.35
2022-10-14T11:49:50.696Z,18.41
2022-10-14T11:50:50.693Z,18.41
2022-10-14T11:51:50.679Z,18.41
2022-10-14T11:52:50.675Z,18.10
2022-10-14T11:53:50.649Z,17.90
2022-10-14T11:54:50.647Z,17.86
2022-10-14T11:55:50.634Z,17.74
2022-10-14T11:56:50.628Z,17.43
2022-10-14T11:57:50.609Z,17.28
2022-10-14T11:58:50.609Z,17.07
2022-10-14T11:59:50.589Z,17.06
2022-10-14T12:00:50.588Z,17.03
2022-10-14T12:01:50.576Z,16.94
2022-10-14T12:02:50.653Z,16.86
2022-10-14T12:03:50.552Z,16.89
2022-10-14T12:04:50.548Z,16.93
2022-10-14T12:05:50.524Z,16.88
2022-10-14T12:06:50.542Z,16.71
2022-10-14T12:07:50.512Z,16.70
2022-10-14T12:08:50.504Z,16.70
2022-10-14T12:09:51.725Z,16.71
2022-10-14T12:10:50.473Z,16.73
2022-10-14T12:11:50.465Z,16.71
2022-10-14T12:12:50.462Z,16.75
2022-10-14T12:13:50.455Z,16.79
2022-10-14T12:14:50.435Z,16.73
2022-10-14T12:15:50.417Z,16.79
2022-10-14T12:16:50.415Z,16.70
2022-10-14T12:17:50.410Z,16.68
2022-10-14T12:18:50.418Z,16.78
2022-10-14T12:19:50.376Z,16.73
2022-10-14T12:20:50.378Z,16.71
2022-10-14T12:21:50.840Z,16.75
2022-10-14T12:22:50.348Z,16.78
2022-10-14T12:23:50.348Z,16.68
2022-10-14T12:24:50.338Z,16.60
2022-10-14T12:25:50.320Z,16.64
2022-10-14T12:26:50.310Z,16.70
2022-10-14T12:27:50.313Z,16.70
2022-10-14T12:28:52.774Z,16.76
2022-10-14T12:29:50.270Z,16.83
2022-10-14T12:30:50.272Z,16.86
2022-10-14T12:31:50.251Z,16.89
2022-10-14T12:32:50.251Z,16.82
2022-10-14T12:33:50.242Z,16.73
2022-10-14T12:34:50.243Z,16.73
2022-10-14T12:35:50.214Z,16.76
2022-10-14T12:36:50.213Z,16.73
2022-10-14T12:37:50.441Z,16.68
2022-10-14T12:38:50.184Z,16.64
2022-10-14T12:39:50.175Z,16.64
2022-10-14T12:40:50.173Z,16.78
2022-10-14T12:41:50.158Z,16.88
2022-10-14T12:42:50.155Z,16.98
2022-10-14T12:43:52.262Z,16.98
2022-10-14T12:44:50.176Z,16.96
2022-10-14T12:45:50.139Z,16.98
2022-10-14T12:46:50.096Z,17.01
2022-10-14T12:47:50.100Z,17.07
2022-10-14T12:48:50.077Z,17.14
2022-10-14T12:49:50.075Z,17.19
2022-10-14T12:50:50.069Z,17.26
2022-10-14T12:51:50.048Z,17.33
2022-10-14T12:52:50.040Z,17.36
2022-10-14T12:53:50.023Z,17.36
2022-10-14T12:55:50.002Z,17.40
2022-10-14T12:56:49.999Z,17.41